createdAt,value
2023-04-28T00:01:12.972Z,67604.50
2023-04-28T00:03:40.344Z,67598.28
2023-04-28T00:06:07.596Z,67586.81
2023-04-28T00:08:34.843Z,67578.16
2023-04-28T00:11:01.929Z,67595.63
2023-04-28T00:13:29.029Z,67586.81
2023-04-28T00:15:56.257Z,67574.97
2023-04-28T00:18:23.486Z,67572.72
2023-04-28T00:20:50.767Z,67560.09
2023-04-28T00:23:17.901Z,67556.75
2023-04-28T00:25:44.914Z,67559.00
2023-04-28T00:28:14.182Z,67549.25
2023-04-28T00:30:45.650Z,67554.13
2023-04-28T00:33:13.717Z,67556.56
2023-04-28T00:35:42.213Z,67553.56
2023-04-28T00:38:09.262Z,67544.91
2023-04-28T00:40:37.622Z,67534.06
2023-04-28T00:43:05.430Z,67529.88
2023-04-28T00:45:32.608Z,67540.03
2023-04-28T00:48:00.631Z,67537.00
2023-04-28T00:50:28.582Z,67523.69
2023-04-28T00:52:56.102Z,67518.63
2023-04-28T00:55:24.749Z,67462.00
2023-04-28T00:57:51.880Z,67517.84
2023-04-28T01:00:19.047Z,67506.44
2023-04-28T01:02:46.884Z,67511.88
2023-04-28T01:05:15.159Z,67509.63
2023-04-28T01:07:42.245Z,67511.28
2023-04-28T01:10:10.068Z,67458.44
2023-04-28T01:12:37.518Z,67454.69
2023-04-28T01:15:05.147Z,67497.22
2023-04-28T01:17:32.379Z,67498.34
2023-04-28T01:19:59.985Z,67495.53
2023-04-28T01:22:26.983Z,67455.06
2023-04-28T01:24:54.407Z,67488.19
2023-04-28T01:27:23.383Z,67438.38
2023-04-28T01:29:50.451Z,67494.41
2023-04-28T01:32:17.632Z,67503.03
2023-04-28T01:34:44.732Z,67518.63
2023-04-28T01:37:11.935Z,67475.53
2023-04-28T01:39:39.020Z,67508.47
2023-04-28T01:42:06.474Z,67496.66
2023-04-28T01:44:33.900Z,67483.91
2023-04-28T01:47:01.144Z,67474.91
2023-04-28T01:49:28.462Z,67433.13
2023-04-28T01:51:55.549Z,67473.00
2023-04-28T01:54:22.797Z,67464.91
2023-04-28T01:56:50.007Z,67460.06
2023-04-28T01:59:20.457Z,67458.72
2023-04-28T02:01:47.968Z,67452.38
2023-04-28T02:04:15.405Z,67450.25
2023-04-28T02:06:42.736Z,67445.41
2023-04-28T02:09:09.824Z,67447.66
2023-04-28T02:11:36.943Z,67397.31
2023-04-28T02:14:05.021Z,67444.06
2023-04-28T02:16:33.860Z,67447.44
2023-04-28T02:19:01.143Z,67452.50
2023-04-28T02:21:28.570Z,67444.06
2023-04-28T02:23:56.045Z,67439.22
2023-04-28T02:26:24.631Z,67438.06
2023-04-28T02:28:51.943Z,67436.03
2023-04-28T02:31:18.998Z,67438.44
2023-04-28T02:33:46.620Z,67433.59
2023-04-28T02:36:13.820Z,67431.69
2023-04-28T02:38:41.963Z,67432.81
2023-04-28T02:41:09.370Z,67427.03
2023-04-28T02:43:37.391Z,67426.81
2023-04-28T02:46:04.823Z,67426.06
2023-04-28T02:48:36.153Z,67423.09
2023-04-28T02:51:03.693Z,67425.69
2023-04-28T02:53:32.422Z,67428.88
2023-04-28T02:56:01.995Z,67432.25
2023-04-28T02:58:29.671Z,67436.75
2023-04-28T03:00:56.726Z,67437.53
2023-04-28T03:03:24.973Z,67440.31
2023-04-28T03:05:52.272Z,67393.34
2023-04-28T03:08:20.983Z,67441.81
2023-04-28T03:10:48.036Z,67444.06
2023-04-28T03:13:15.177Z,67441.47
2023-04-28T03:15:43.848Z,67437.53
2023-04-28T03:18:11.205Z,67436.97
2023-04-28T03:20:39.493Z,67436.38
2023-04-28T03:23:07.467Z,67438.06
2023-04-28T03:25:36.084Z,67439.00
2023-04-28T03:28:03.689Z,67394.47
2023-04-28T03:30:30.837Z,67459.84
2023-04-28T03:32:58.214Z,67399.91
2023-04-28T03:35:25.366Z,67386.03
2023-04-28T03:37:52.519Z,67437.31
2023-04-28T03:40:19.705Z,67383.03
2023-04-28T03:43:16.233Z,67427.94
2023-04-28T03:46:18.764Z,67384.91
2023-04-28T03:48:47.325Z,67430.97
2023-04-28T03:51:14.326Z,67440.91
2023-04-28T03:53:42.027Z,67435.06
2023-04-28T03:56:09.112Z,67427.94
2023-04-28T03:58:36.751Z,67427.94
2023-04-28T04:01:03.887Z,67428.50
2023-04-28T04:03:31.188Z,67437.53
2023-04-28T04:05:58.715Z,67454.97
2023-04-28T04:08:25.790Z,67456.66
2023-04-28T04:10:54.884Z,67462.09
2023-04-28T04:13:23.429Z,67461.16
2023-04-28T04:15:55.386Z,67466.78
2023-04-28T04:18:24.899Z,67473.75
2023-04-28T04:21:10.137Z,67484.63
2023-04-28T04:23:37.552Z,67488.03
2023-04-28T04:26:04.852Z,67500.25
2023-04-28T04:28:32.562Z,67507.56
2023-04-28T04:30:59.754Z,67521.78
2023-04-28T04:33:26.851Z,67522.94
2023-04-28T04:35:54.547Z,67521.66
2023-04-28T04:38:21.763Z,67532.72
2023-04-28T04:40:49.252Z,67531.78
2023-04-28T04:43:16.409Z,67538.00
2023-04-28T04:45:48.202Z,67549.97
2023-04-28T04:48:15.778Z,67554.69
2023-04-28T04:50:43.850Z,67561.66
2023-04-28T04:53:14.616Z,67557.72
2023-04-28T04:55:44.665Z,67556.38
2023-04-28T04:58:12.171Z,67549.47
2023-04-28T05:00:57.551Z,67563.50
2023-04-28T05:03:24.893Z,67571.97
2023-04-28T05:05:52.126Z,67523.41
2023-04-28T05:08:32.967Z,67577.59
2023-04-28T05:11:00.303Z,67587.75
2023-04-28T05:13:27.428Z,67590.75
2023-04-28T05:16:00.288Z,67597.31
2023-04-28T05:18:42.560Z,67604.66
2023-04-28T05:21:11.780Z,67609.72
2023-04-28T05:23:38.781Z,67618.03
2023-04-28T05:26:06.473Z,67633.41
2023-04-28T05:28:33.663Z,67634.38
2023-04-28T05:31:02.099Z,67647.69
2023-04-28T05:33:31.460Z,67662.16
2023-04-28T05:35:59.747Z,67681.34
2023-04-28T05:38:27.343Z,67704.69
2023-04-28T05:40:56.024Z,67729.50
2023-04-28T05:43:23.795Z,67747.00
2023-04-28T05:45:51.178Z,67737.81
2023-04-28T05:48:18.816Z,67741.72
2023-04-28T05:50:45.955Z,67744.03
2023-04-28T05:53:13.077Z,67746.28
2023-04-28T05:55:40.574Z,67756.41
2023-04-28T05:58:08.128Z,67761.66
2023-04-28T06:00:35.676Z,67782.94
2023-04-28T06:03:03.197Z,67831.69
2023-04-28T06:05:30.745Z,67956.22
2023-04-28T06:08:00.675Z,68068.38
2023-04-28T06:10:27.901Z,68172.16
2023-04-28T06:12:55.167Z,68231.44
2023-04-28T06:15:22.269Z,68235.03
2023-04-28T06:17:49.467Z,68248.78
2023-04-28T06:20:17.350Z,68179.91
2023-04-28T06:22:44.558Z,68128.38
2023-04-28T06:25:12.148Z,68112.50
2023-04-28T06:27:44.791Z,68101.19
2023-04-28T06:30:19.297Z,68105.91
2023-04-28T06:32:46.708Z,68101.75
2023-04-28T06:35:14.373Z,68091.78
2023-04-28T06:37:41.816Z,68092.13
2023-04-28T06:40:10.342Z,68091.78
2023-04-28T06:42:41.318Z,68120.06
2023-04-28T06:45:12.024Z,68131.59
2023-04-28T06:47:40.747Z,68147.25
2023-04-28T06:50:09.713Z,68176.88
2023-04-28T06:52:42.062Z,68207.47
2023-04-28T06:55:09.955Z,68259.00
2023-04-28T06:57:38.723Z,68330.22
2023-04-28T07:00:06.620Z,68371.22
2023-04-28T07:02:33.880Z,68345.16
2023-04-28T07:05:00.901Z,68351.00
2023-04-28T07:07:28.455Z,68379.00
2023-04-28T07:09:55.844Z,68392.78
2023-04-28T07:12:23.191Z,68441.94
2023-04-28T07:14:51.939Z,68483.34
2023-04-28T07:17:21.236Z,68453.09
2023-04-28T07:19:52.542Z,68461.81
2023-04-28T07:22:20.134Z,68447.81
2023-04-28T07:24:50.240Z,68430.78
2023-04-28T07:27:21.271Z,68439.88
2023-04-28T07:29:48.531Z,68416.78
2023-04-28T07:32:18.826Z,68399.97
2023-04-28T07:34:47.659Z,68384.28
2023-04-28T07:37:16.539Z,68398.47
2023-04-28T07:39:43.750Z,68430.78
2023-04-28T07:42:11.201Z,68477.50
2023-04-28T07:44:38.565Z,68533.34
2023-04-28T07:47:06.253Z,68525.75
2023-04-28T07:49:33.591Z,68535.03
2023-04-28T07:52:03.668Z,68541.09
2023-04-28T07:54:31.417Z,68525.19
2023-04-28T07:56:58.716Z,68533.88
2023-04-28T07:59:25.902Z,68523.13
2023-04-28T08:01:56.096Z,68510.63
2023-04-28T08:04:27.918Z,68516.28
2023-04-28T08:06:56.481Z,68528.59
2023-04-28T08:09:23.811Z,68557.72
2023-04-28T08:11:51.021Z,68579.13
2023-04-28T08:14:18.691Z,68583.47
2023-04-28T08:16:47.361Z,68590.28
2023-04-28T08:19:14.743Z,68583.84
2023-04-28T08:21:42.357Z,68614.91
2023-04-28T08:24:11.870Z,68657.88
2023-04-28T08:26:39.964Z,68691.59
2023-04-28T08:29:07.128Z,68681.56
2023-04-28T08:31:34.192Z,68655.44
2023-04-28T08:34:01.518Z,68646.53
2023-04-28T08:36:35.194Z,68641.41
2023-04-28T08:39:14.367Z,68633.44
2023-04-28T08:41:41.793Z,68615.84
2023-04-28T08:44:10.177Z,68601.47
2023-04-28T08:46:44.857Z,68616.78
2023-04-28T08:49:17.556Z,68650.69
2023-04-28T08:51:58.851Z,68718.13
2023-04-28T08:54:36.511Z,68788.44
2023-04-28T08:57:15.980Z,68851.97
2023-04-28T08:59:43.110Z,68836.03
2023-04-28T09:02:12.927Z,68820.69
2023-04-28T09:04:41.596Z,68789.56
2023-04-28T09:07:23.322Z,68786.34
2023-04-28T09:09:53.209Z,68835.28
2023-04-28T09:12:30.126Z,68849.50
2023-04-28T09:14:58.713Z,68815.00
2023-04-28T09:17:25.953Z,68804.00
2023-04-28T09:19:55.709Z,68776.09
2023-04-28T09:22:29.445Z,68768.91
2023-04-28T09:24:57.469Z,68768.72
2023-04-28T09:27:30.416Z,68791.84
2023-04-28T09:29:58.190Z,68780.84
2023-04-28T09:32:30.824Z,68828.44
2023-04-28T09:35:01.690Z,68854.44
2023-04-28T09:37:33.604Z,68879.25
2023-04-28T09:40:10.500Z,68912.44
2023-04-28T09:43:24.048Z,68905.06
2023-04-28T09:45:58.155Z,68856.50
2023-04-28T09:48:38.844Z,68843.03
2023-04-28T09:51:11.678Z,68816.13
2023-04-28T09:53:42.333Z,68802.28
2023-04-28T09:56:14.928Z,68797.34
2023-04-28T09:58:48.093Z,68789.56
2023-04-28T10:01:18.742Z,68811.00
2023-04-28T10:03:46.718Z,68818.56
2023-04-28T10:06:17.049Z,68829.75
2023-04-28T10:08:51.470Z,68849.50
2023-04-28T10:11:23.240Z,68842.09
2023-04-28T10:13:57.314Z,68846.47
2023-04-28T10:16:30.507Z,68855.19
2023-04-28T10:18:57.781Z,68844.38
2023-04-28T10:21:35.708Z,68854.44
2023-04-28T10:24:22.512Z,68800.00
2023-04-28T10:27:09.377Z,68751.84
2023-04-28T10:29:40.276Z,68712.06
2023-04-28T10:32:29.367Z,68709.44
2023-04-28T10:35:22.615Z,68696.53
2023-04-28T10:38:12.654Z,68642.91
2023-04-28T10:41:03.100Z,68620.00
2023-04-28T10:43:32.876Z,68616.22
2023-04-28T10:46:04.034Z,68579.50
2023-04-28T10:48:34.302Z,68570.78
2023-04-28T10:51:04.483Z,68534.09
2023-04-28T10:53:44.328Z,68509.69
2023-04-28T10:56:23.747Z,68488.84
2023-04-28T10:58:55.466Z,68504.34
2023-04-28T11:01:27.361Z,68499.06
2023-04-28T11:04:02.952Z,68509.13
2023-04-28T11:06:35.508Z,68524.81
2023-04-28T11:09:12.521Z,68524.44
2023-04-28T11:11:41.134Z,68528.97
2023-04-28T11:14:18.341Z,68521.97
2023-04-28T11:17:12.685Z,68538.06
2023-04-28T11:19:48.819Z,68555.06
2023-04-28T11:22:25.564Z,68565.69
2023-04-28T11:25:04.442Z,68559.25
2023-04-28T11:27:37.460Z,68526.13
2023-04-28T11:30:30.571Z,68533.72
2023-04-28T11:33:03.192Z,68513.09
2023-04-28T11:35:41.831Z,68482.97
2023-04-28T11:38:09.091Z,68492.44
2023-04-28T11:40:38.865Z,68486.94
2023-04-28T11:43:07.035Z,68475.78
2023-04-28T11:45:34.187Z,68483.53
2023-04-28T11:48:06.253Z,68487.88
2023-04-28T11:50:37.882Z,68485.63
2023-04-28T11:53:05.339Z,68494.31
2023-04-28T11:55:36.908Z,68491.69
2023-04-28T11:58:23.638Z,68491.13
2023-04-28T12:01:24.741Z,68504.19
2023-04-28T12:03:52.257Z,68525.75
2023-04-28T12:06:19.841Z,68540.31
2023-04-28T12:08:49.970Z,68532.75
2023-04-28T12:11:25.707Z,68563.97
2023-04-28T12:14:11.746Z,68581.19
2023-04-28T12:16:43.418Z,68581.97
2023-04-28T12:19:15.264Z,68584.63
2023-04-28T12:21:43.067Z,68598.59
2023-04-28T12:24:17.908Z,68603.94
2023-04-28T12:26:48.227Z,68591.03
2023-04-28T12:29:41.305Z,68567.19
2023-04-28T12:32:11.088Z,68608.66
2023-04-28T12:34:42.545Z,68601.28
2023-04-28T12:37:10.037Z,68576.09
2023-04-28T12:39:40.628Z,68556.41
2023-04-28T12:42:08.179Z,68553.56
2023-04-28T12:44:40.967Z,68547.13
2023-04-28T12:47:12.363Z,68546.19
2023-04-28T12:49:39.523Z,68564.16
2023-04-28T12:52:07.545Z,68590.47
2023-04-28T12:54:37.643Z,68575.69
2023-04-28T12:57:05.743Z,68579.31
2023-04-28T12:59:36.520Z,68555.66
2023-04-28T13:02:04.063Z,68565.69
2023-04-28T13:04:32.161Z,68563.22
2023-04-28T13:07:04.469Z,68559.44
2023-04-28T13:09:31.524Z,68570.41
2023-04-28T13:12:04.050Z,68549.59
2023-04-28T13:14:38.928Z,68501.31
2023-04-28T13:17:06.388Z,68434.94
2023-04-28T13:19:34.610Z,68429.66
2023-04-28T13:22:07.270Z,68427.97
2023-04-28T13:24:39.063Z,68439.66
2023-04-28T13:27:10.019Z,68431.00
2023-04-28T13:29:38.005Z,68419.81
2023-04-28T13:32:06.182Z,68420.00
2023-04-28T13:34:33.600Z,68413.03
2023-04-28T13:37:00.978Z,68402.63
2023-04-28T13:39:28.050Z,68398.28
2023-04-28T13:41:56.693Z,68398.81
2023-04-28T13:44:24.187Z,68405.25
2023-04-28T13:46:53.214Z,68394.69
2023-04-28T13:49:23.737Z,68405.66
2023-04-28T13:51:51.042Z,68400.53
2023-04-28T13:54:18.298Z,68398.28
2023-04-28T13:57:03.175Z,68401.69
2023-04-28T13:59:37.205Z,68388.81
2023-04-28T14:02:05.207Z,68384.47
2023-04-28T14:04:36.286Z,68362.94
2023-04-28T14:07:08.792Z,68361.59
2023-04-28T14:09:35.989Z,68357.63
2023-04-28T14:12:19.756Z,68357.25
2023-04-28T14:14:53.614Z,68356.31
2023-04-28T14:17:23.621Z,68346.47
2023-04-28T14:22:29.672Z,68361.41
2023-04-28T14:25:00.465Z,68382.97
2023-04-28T14:27:28.463Z,68391.47
2023-04-28T14:29:58.777Z,68389.38
2023-04-28T14:32:29.399Z,68387.31
2023-04-28T14:34:56.485Z,68379.38
2023-04-28T14:37:24.863Z,68378.44
2023-04-28T14:39:52.194Z,68383.50
2023-04-28T14:42:21.833Z,68375.97
2023-04-28T14:44:53.327Z,68384.28
2023-04-28T14:47:33.622Z,68390.34
2023-04-28T14:50:00.923Z,68385.97
2023-04-28T14:52:33.810Z,68397.13
2023-04-28T14:55:06.243Z,68385.59
2023-04-28T14:57:37.352Z,68397.50
2023-04-28T15:00:10.736Z,68399.78
2023-04-28T15:02:44.456Z,68419.63
2023-04-28T15:05:14.384Z,68424.53
2023-04-28T15:07:45.163Z,68422.09
2023-04-28T15:10:15.557Z,68427.38
2023-04-28T15:12:47.970Z,68425.50
2023-04-28T15:15:15.220Z,68430.78
2023-04-28T15:17:43.712Z,68433.03
2023-04-28T15:20:20.763Z,68443.06
2023-04-28T15:22:47.945Z,68447.03
2023-04-28T15:25:17.372Z,68437.78
2023-04-28T15:27:44.642Z,68426.81
2023-04-28T15:30:16.320Z,68445.72
2023-04-28T15:32:44.821Z,68437.22
2023-04-28T15:35:12.321Z,68430.41
2023-04-28T15:37:45.001Z,68431.53
2023-04-28T15:40:14.578Z,68437.41
2023-04-28T15:42:43.034Z,68431.72
2023-04-28T15:45:11.207Z,68431.38
2023-04-28T15:47:39.337Z,68429.47
2023-04-28T15:50:10.859Z,68432.66
2023-04-28T15:52:41.335Z,68417.72
2023-04-28T15:55:09.040Z,68419.44
2023-04-28T15:57:36.692Z,68417.00
2023-04-28T16:00:08.565Z,68417.00
2023-04-28T16:02:37.412Z,68410.38
2023-04-28T16:05:10.217Z,68404.88
2023-04-28T16:07:44.426Z,68401.47
2023-04-28T16:10:31.610Z,68410.75
2023-04-28T16:12:58.957Z,68409.44
2023-04-28T16:15:26.170Z,68416.41
2023-04-28T16:17:56.915Z,68419.81
2023-04-28T16:20:27.647Z,68423.41
2023-04-28T16:22:55.105Z,68424.53
2023-04-28T16:25:27.434Z,68420.56
2023-04-28T16:27:54.563Z,68418.50
2023-04-28T16:30:25.191Z,68412.44
2023-04-28T16:32:58.718Z,68418.31
2023-04-28T16:35:36.770Z,68420.56
2023-04-28T16:38:04.523Z,68408.84
2023-04-28T16:40:31.559Z,68416.78
2023-04-28T16:42:59.001Z,68413.03
2023-04-28T16:45:27.477Z,68410.19
2023-04-28T16:47:54.598Z,68420.38
2023-04-28T16:50:24.692Z,68403.56
2023-04-28T16:52:56.317Z,68401.84
2023-04-28T16:55:23.836Z,68397.13
2023-04-28T16:57:50.878Z,68397.88
2023-04-28T17:00:18.444Z,68398.81
2023-04-28T17:02:46.029Z,68387.88
2023-04-28T17:05:13.105Z,68383.16
2023-04-28T17:07:40.192Z,68377.88
2023-04-28T17:10:07.788Z,68380.69
2023-04-28T17:12:34.908Z,68380.13
2023-04-28T17:15:04.179Z,68377.09
2023-04-28T17:17:31.696Z,68374.47
2023-04-28T17:20:02.092Z,68372.94
2023-04-28T17:22:30.928Z,68371.63
2023-04-28T17:24:58.048Z,68370.66
2023-04-28T17:27:25.259Z,68363.50
2023-04-28T17:29:52.826Z,68373.88
2023-04-28T17:32:20.156Z,68364.25
2023-04-28T17:34:47.494Z,68362.34
2023-04-28T17:37:14.616Z,68361.97
2023-04-28T17:39:42.045Z,68368.78
2023-04-28T17:42:09.132Z,68364.81
2023-04-28T17:44:36.363Z,68361.03
2023-04-28T17:47:03.649Z,68352.16
2023-04-28T17:49:30.904Z,68355.75
2023-04-28T17:51:57.961Z,68358.75
2023-04-28T17:54:25.090Z,68357.63
2023-04-28T17:56:53.193Z,68361.78
2023-04-28T17:59:20.503Z,68358.22
2023-04-28T18:01:47.570Z,68353.28
2023-04-28T18:04:14.741Z,68359.72
2023-04-28T18:06:41.885Z,68356.69
2023-04-28T18:09:08.962Z,68355.75
2023-04-28T18:11:36.926Z,68347.81
2023-04-28T18:14:03.972Z,68355.19
2023-04-28T18:16:31.312Z,68353.09
2023-04-28T18:18:58.433Z,68350.66
2023-04-28T18:21:25.838Z,68361.41
2023-04-28T18:23:52.905Z,68355.34
2023-04-28T18:26:22.213Z,68360.84
2023-04-28T18:28:49.788Z,68352.72
2023-04-28T18:31:16.878Z,68365.38
2023-04-28T18:33:45.059Z,68359.31
2023-04-28T18:36:12.403Z,68354.63
2023-04-28T18:38:39.513Z,68339.50
2023-04-28T18:41:17.231Z,68348.19
2023-04-28T18:43:44.380Z,68350.06
2023-04-28T18:46:12.066Z,68350.06
2023-04-28T18:48:40.067Z,68341.75
2023-04-28T18:51:07.485Z,68353.28
2023-04-28T18:53:36.099Z,68339.88
2023-04-28T18:56:03.296Z,68346.66
2023-04-28T18:58:31.147Z,68355.19
2023-04-28T19:00:58.332Z,68357.25
2023-04-28T19:03:26.246Z,68346.31
2023-04-28T19:05:53.912Z,68342.13
2023-04-28T19:08:21.001Z,68331.00
2023-04-28T19:10:49.062Z,68341.56
2023-04-28T19:13:16.229Z,68341.75
2023-04-28T19:15:43.398Z,68334.97
2023-04-28T19:18:10.509Z,68334.19
2023-04-28T19:20:37.545Z,68335.53
2023-04-28T19:23:04.597Z,68328.50
2023-04-28T19:25:33.653Z,68332.66
2023-04-28T19:28:00.900Z,68321.91
2023-04-28T19:30:28.049Z,68325.31
2023-04-28T19:32:55.133Z,68328.69
2023-04-28T19:35:22.613Z,68331.53
2023-04-28T19:37:49.938Z,68318.31
2023-04-28T19:40:17.430Z,68311.69
2023-04-28T19:42:44.611Z,68308.84
2023-04-28T19:45:11.799Z,68313.59
2023-04-28T19:47:39.437Z,68306.97
2023-04-28T19:50:08.591Z,68302.81
2023-04-28T19:52:35.722Z,68306.41
2023-04-28T19:55:02.873Z,68304.91
2023-04-28T19:57:30.840Z,68303.56
2023-04-28T19:59:58.346Z,68300.75
2023-04-28T20:02:25.824Z,68307.34
2023-04-28T20:04:53.077Z,68299.03
2023-04-28T20:07:20.217Z,68297.34
2023-04-28T20:09:48.098Z,68289.03
2023-04-28T20:12:15.423Z,68287.88
2023-04-28T20:14:42.483Z,68286.38
2023-04-28T20:17:09.926Z,68291.66
2023-04-28T20:19:37.747Z,68292.22
2023-04-28T20:22:08.413Z,68291.84
2023-04-28T20:24:37.383Z,68289.41
2023-04-28T20:27:04.525Z,68286.94
2023-04-28T20:29:34.834Z,68295.81
2023-04-28T20:32:02.614Z,68288.66
2023-04-28T20:34:30.919Z,68289.03
2023-04-28T20:36:59.673Z,68286.00
2023-04-28T20:39:26.748Z,68269.94
2023-04-28T20:41:53.837Z,68262.59
2023-04-28T20:44:21.239Z,68256.16
2023-04-28T20:46:48.949Z,68251.44
2023-04-28T20:49:16.072Z,68248.81
2023-04-28T20:51:46.448Z,68247.69
2023-04-28T20:54:13.994Z,68251.44
2023-04-28T20:56:42.895Z,68248.03
2023-04-28T20:59:10.424Z,68237.47
2023-04-28T21:01:37.517Z,68235.97
2023-04-28T21:04:04.919Z,68244.84
2023-04-28T21:06:32.070Z,68249.94
2023-04-28T21:08:59.135Z,68257.09
2023-04-28T21:11:26.364Z,68266.19
2023-04-28T21:13:53.386Z,68266.94
2023-04-28T21:16:21.607Z,68265.63
2023-04-28T21:18:49.831Z,68269.00
2023-04-28T21:21:17.340Z,68262.41
2023-04-28T21:23:45.584Z,68266.75
2023-04-28T21:26:12.920Z,68265.25
2023-04-28T21:28:40.274Z,68271.09
2023-04-28T21:31:07.509Z,68264.09
2023-04-28T21:33:34.701Z,68265.03
2023-04-28T21:36:09.308Z,68260.13
2023-04-28T21:38:37.903Z,68264.66
2023-04-28T21:41:05.454Z,68275.81
2023-04-28T21:43:33.123Z,68265.41
2023-04-28T21:46:00.270Z,68258.63
2023-04-28T21:48:27.366Z,68265.81
2023-04-28T21:50:54.432Z,68274.28
2023-04-28T21:53:21.608Z,68262.97
2023-04-28T21:55:49.719Z,68257.88
2023-04-28T21:58:16.902Z,68258.81
2023-04-28T22:00:47.064Z,68259.38
2023-04-28T22:03:15.393Z,68262.78
2023-04-28T22:05:44.116Z,68258.06
2023-04-28T22:08:11.725Z,68255.03
2023-04-28T22:10:38.973Z,68254.66
2023-04-28T22:13:06.628Z,68260.34
2023-04-28T22:15:33.931Z,68263.91
2023-04-28T22:18:01.225Z,68259.00
2023-04-28T22:20:28.391Z,68258.06
2023-04-28T22:22:55.725Z,68259.75
2023-04-28T22:25:23.092Z,68257.50
2023-04-28T22:27:50.201Z,68263.91
2023-04-28T22:30:18.035Z,68260.50
2023-04-28T22:32:46.943Z,68260.13
2023-04-28T22:35:16.185Z,68261.28
2023-04-28T22:37:43.564Z,68260.34
2023-04-28T22:40:11.186Z,68263.53
2023-04-28T22:42:41.175Z,68274.09
2023-04-28T22:45:10.233Z,68278.25
2023-04-28T22:47:39.737Z,68267.13
2023-04-28T22:50:09.179Z,68262.41
2023-04-28T22:52:36.682Z,68251.66
2023-04-28T22:55:04.692Z,68260.13
2023-04-28T22:57:31.785Z,68255.59
2023-04-28T22:59:59.055Z,68245.41
2023-04-28T23:02:26.264Z,68243.13
2023-04-28T23:04:53.833Z,68241.44
2023-04-28T23:07:21.126Z,68239.72
2023-04-28T23:09:48.341Z,68238.06
2023-04-28T23:12:16.344Z,68235.59
2023-04-28T23:14:43.428Z,68238.78
2023-04-28T23:17:10.831Z,68234.09
2023-04-28T23:19:39.369Z,68229.75
2023-04-28T23:22:08.112Z,68236.16
2023-04-28T23:24:36.758Z,68238.06
2023-04-28T23:27:04.195Z,68238.41
2023-04-28T23:29:31.433Z,68230.13
2023-04-28T23:31:58.813Z,68232.38
2023-04-28T23:34:26.306Z,68223.50
2023-04-28T23:36:53.397Z,68219.34
2023-04-28T23:39:20.661Z,68221.44
2023-04-28T23:41:47.737Z,68212.53
2023-04-28T23:44:14.941Z,68212.53
2023-04-28T23:46:42.217Z,68205.75
2023-04-28T23:49:10.033Z,68216.31
2023-04-28T23:51:37.144Z,68206.91
2023-04-28T23:54:04.173Z,68205.75
2023-04-28T23:56:31.658Z,68210.09
2023-04-28T23:58:58.728Z,68220.28
